Time;durP1;ratioP1;P1;durP2;ratioP2;P2;SDS_P1;SDS_P2;PMS_P1;PMS_P2;Temp;Humidity;BMP_temperature;BMP_pressure;BME280_temperature;BME280_humidity;BME280_pressure;Samples;Min_cycle;Max_cycle;Signal;HPM_P1;HPM_P2
2023/06/28 00:01:00;;;;;;;0.32;0.30;;;24.90;48.40;;;;;;7760473;23;20016;-57
2023/06/28 00:04:02;;;;;;;0.45;0.40;;;24.90;48.40;;;;;;7751093;22;20023;-57
2023/06/28 00:07:07;;;;;;;0.40;0.38;;;24.90;48.50;;;;;;7747199;23;20020;-57
2023/06/28 00:10:09;;;;;;;0.40;0.30;;;24.80;48.50;;;;;;7747830;22;20016;-57
2023/06/28 00:13:11;;;;;;;0.40;0.40;;;24.90;48.30;;;;;;7756249;22;20028;-57
2023/06/28 00:16:14;;;;;;;0.50;0.40;;;24.90;48.40;;;;;;7761256;23;20039;-57
2023/06/28 00:19:26;;;;;;;0.80;0.60;;;24.90;48.20;;;;;;7754556;23;20064;-57
2023/06/28 00:22:29;;;;;;;0.52;0.40;;;24.90;48.50;;;;;;7754647;23;20020;-57
2023/06/28 00:25:31;;;;;;;0.50;0.30;;;24.70;48.00;;;;;;7760170;23;20023;-57
2023/06/28 00:28:32;;;;;;;0.70;0.45;;;24.90;48.60;;;;;;7754959;23;20008;-58
2023/06/28 00:31:35;;;;;;;0.38;0.30;;;24.90;48.10;;;;;;7752378;22;20103;-58
2023/06/28 00:34:38;;;;;;;0.52;0.40;;;24.50;48.40;;;;;;7750540;22;20020;-57
2023/06/28 00:37:39;;;;;;;0.40;0.40;;;24.90;48.50;;;;;;7746210;23;20013;-58
2023/06/28 00:40:43;;;;;;;0.40;0.30;;;24.80;48.50;;;;;;7751179;22;20021;-58
2023/06/28 00:43:45;;;;;;;0.30;0.30;;;24.90;48.50;;;;;;7746004;23;20325;-58
2023/06/28 00:46:49;;;;;;;0.55;0.45;;;24.90;48.70;;;;;;7747895;23;20233;-58
2023/06/28 00:49:53;;;;;;;0.60;0.40;;;24.70;48.50;;;;;;7746920;23;20012;-58
2023/06/28 00:52:54;;;;;;;0.40;0.30;;;24.90;48.60;;;;;;7746654;23;20459;-57
2023/06/28 00:56:00;;;;;;;0.35;0.35;;;24.70;48.40;;;;;;7753976;23;20020;-58
2023/06/28 00:59:03;;;;;;;0.77;0.50;;;25.00;48.70;;;;;;7763736;22;20016;-58
2023/06/28 01:02:04;;;;;;;1.27;0.55;;;24.80;48.60;;;;;;7764285;23;20016;-57
2023/06/28 01:05:07;;;;;;;0.60;0.50;;;24.80;48.70;;;;;;7760869;23;20016;-57
2023/06/28 01:08:09;;;;;;;0.40;0.30;;;24.90;48.60;;;;;;7768626;23;20076;-58
2023/06/28 01:11:11;;;;;;;0.30;0.30;;;24.90;48.80;;;;;;7754355;22;20458;-58
2023/06/28 01:14:16;;;;;;;0.38;0.28;;;24.70;48.60;;;;;;7738449;23;20037;-58
2023/06/28 01:17:19;;;;;;;0.38;0.38;;;24.50;48.60;;;;;;7763364;23;20040;-57
2023/06/28 01:20:24;;;;;;;0.40;0.40;;;24.90;48.70;;;;;;7760642;23;20049;-57
2023/06/28 01:23:29;;;;;;;0.40;0.30;;;24.90;47.40;;;;;;7757828;22;20073;-58
2023/06/28 01:26:33;;;;;;;0.47;0.40;;;24.80;46.20;;;;;;7762816;22;20071;-57
2023/06/28 01:29:36;;;;;;;0.55;0.30;;;24.40;48.70;;;;;;7769970;23;20012;-57
2023/06/28 01:32:38;;;;;;;0.73;0.22;;;24.70;48.80;;;;;;7773357;23;20020;-57
2023/06/28 01:35:39;;;;;;;0.30;0.30;;;24.80;49.00;;;;;;7769622;23;20012;-57
2023/06/28 01:38:42;;;;;;;0.35;0.28;;;24.50;48.60;;;;;;7770429;22;20064;-57
2023/06/28 01:41:48;;;;;;;0.45;0.35;;;24.80;48.90;;;;;;7770445;23;20084;-57
2023/06/28 01:44:51;;;;;;;0.40;0.40;;;24.90;46.40;;;;;;7770731;22;20473;-57
2023/06/28 01:47:54;;;;;;;0.32;0.22;;;24.80;49.10;;;;;;7770777;22;20012;-57
2023/06/28 01:50:57;;;;;;;0.40;0.30;;;24.30;48.30;;;;;;7770822;23;20023;-57
2023/06/28 01:54:02;;;;;;;0.40;0.30;;;24.90;49.00;;;;;;7770696;22;20018;-57
2023/06/28 01:57:04;;;;;;;0.20;0.20;;;24.70;48.90;;;;;;7770427;22;20031;-58
2023/06/28 02:00:08;;;;;;;0.75;0.28;;;24.90;49.00;;;;;;7770637;22;20032;-57
2023/06/28 02:03:17;;;;;;;0.60;0.40;;;24.90;49.10;;;;;;7771110;22;20032;-57
2023/06/28 02:06:19;;;;;;;0.32;0.30;;;24.80;49.20;;;;;;7770167;22;20016;-57
2023/06/28 02:09:22;;;;;;;0.30;0.30;;;24.90;49.10;;;;;;7770710;22;20023;-57
2023/06/28 02:12:24;;;;;;;0.40;0.40;;;24.90;49.20;;;;;;7770362;23;20035;-57
2023/06/28 02:15:27;;;;;;;0.43;0.40;;;24.40;48.90;;;;;;7769422;23;20012;-58
2023/06/28 02:18:31;;;;;;;0.35;0.30;;;24.90;49.10;;;;;;7769814;23;20012;-57
2023/06/28 02:21:32;;;;;;;0.32;0.30;;;24.90;49.20;;;;;;7770263;23;20022;-57
2023/06/28 02:24:34;;;;;;;0.30;0.30;;;25.00;49.40;;;;;;7768736;23;20019;-58
2023/06/28 02:27:36;;;;;;;0.30;0.30;;;24.80;49.00;;;;;;7769705;23;20012;-57
2023/06/28 02:30:37;;;;;;;0.40;0.40;;;24.80;49.30;;;;;;7768901;22;20035;-58
2023/06/28 02:33:40;;;;;;;0.30;0.20;;;24.90;49.40;;;;;;7769444;23;20022;-57
2023/06/28 02:36:42;;;;;;;0.30;0.30;;;24.70;49.10;;;;;;7768794;22;20024;-56
2023/06/28 02:39:45;;;;;;;0.30;0.30;;;24.70;49.20;;;;;;7769157;22;20039;-58
2023/06/28 02:42:49;;;;;;;0.15;0.15;;;24.80;49.40;;;;;;7768341;23;20038;-57
2023/06/28 02:45:51;;;;;;;0.20;0.20;;;25.00;49.40;;;;;;7768838;22;20031;-57
2023/06/28 02:48:55;;;;;;;0.30;0.20;;;24.80;49.40;;;;;;7769099;22;20017;-57
2023/06/28 02:51:57;;;;;;;0.40;0.40;;;24.80;49.50;;;;;;7768943;23;20035;-57
2023/06/28 02:54:59;;;;;;;0.47;0.30;;;24.80;49.60;;;;;;7768776;22;20056;-57
2023/06/28 02:58:00;;;;;;;0.50;0.30;;;24.90;49.60;;;;;;7768318;22;20019;-58
2023/06/28 03:01:04;;;;;;;0.55;0.40;;;24.80;49.70;;;;;;7768575;22;20016;-57
2023/06/28 03:04:07;;;;;;;0.40;0.35;;;24.70;49.50;;;;;;7766726;22;20019;-57
2023/06/28 03:07:12;;;;;;;0.25;0.25;;;24.40;49.50;;;;;;7767745;22;20016;-57
2023/06/28 03:10:15;;;;;;;0.40;0.28;;;24.80;49.60;;;;;;7766634;23;20022;-57
2023/06/28 03:13:17;;;;;;;0.35;0.20;;;24.90;49.90;;;;;;7767137;22;20019;-58
2023/06/28 03:16:18;;;;;;;0.25;0.25;;;24.50;49.50;;;;;;7767483;22;20019;-57
2023/06/28 03:19:20;;;;;;;0.52;0.30;;;24.80;49.90;;;;;;7766545;22;20012;-57
2023/06/28 03:22:23;;;;;;;0.50;0.40;;;24.80;49.70;;;;;;7767398;22;20023;-57
2023/06/28 03:25:26;;;;;;;0.30;0.25;;;24.80;50.10;;;;;;7767641;22;20016;-57
2023/06/28 03:28:28;;;;;;;0.93;0.57;;;24.90;50.00;;;;;;7766465;22;20027;-57
2023/06/28 03:31:31;;;;;;;0.30;0.30;;;24.40;49.90;;;;;;7766540;22;20019;-57
2023/06/28 03:34:35;;;;;;;0.30;0.20;;;24.60;49.90;;;;;;7765895;22;20036;-57
2023/06/28 03:37:36;;;;;;;0.52;0.40;;;24.80;50.20;;;;;;7766236;23;20016;-57
2023/06/28 03:40:39;;;;;;;0.93;0.45;;;24.70;50.10;;;;;;7763414;23;20051;-57
2023/06/28 03:43:41;;;;;;;0.40;0.30;;;24.80;50.30;;;;;;7760969;23;20039;-51
2023/06/28 03:46:43;;;;;;;0.63;0.40;;;24.70;50.30;;;;;;7736095;22;20039;-47
2023/06/28 03:49:47;;;;;;;0.30;0.25;;;24.70;50.40;;;;;;7736772;22;20019;-48
2023/06/28 03:52:49;;;;;;;0.30;0.30;;;24.60;50.30;;;;;;7737705;22;20417;-48
2023/06/28 03:55:51;;;;;;;0.40;0.40;;;24.60;50.40;;;;;;7737227;22;20024;-48
2023/06/28 03:58:52;;;;;;;0.43;0.38;;;24.50;50.00;;;;;;7737134;22;20353;-49
2023/06/28 04:01:56;;;;;;;0.57;0.30;;;24.60;50.60;;;;;;7738380;22;20024;-48
2023/06/28 04:05:00;;;;;;;1.08;0.40;;;24.60;50.40;;;;;;7737773;23;20020;-52
2023/06/28 04:08:02;;;;;;;0.32;0.28;;;24.70;50.70;;;;;;7736960;23;20306;-48
2023/06/28 04:11:04;;;;;;;0.57;0.30;;;24.60;50.40;;;;;;7736546;22;20024;-47
2023/06/28 04:14:06;;;;;;;0.40;0.30;;;24.60;50.70;;;;;;7737551;23;20349;-49
2023/06/28 04:17:07;;;;;;;0.57;0.40;;;24.50;50.70;;;;;;7737653;22;20043;-47
2023/06/28 04:20:12;;;;;;;0.55;0.30;;;24.50;50.80;;;;;;7737053;22;20068;-49
2023/06/28 04:23:13;;;;;;;0.35;0.35;;;24.30;50.60;;;;;;7734889;23;20043;-46
2023/06/28 04:26:15;;;;;;;0.35;0.30;;;24.40;50.80;;;;;;7734813;22;20688;-46
2023/06/28 04:29:17;;;;;;;0.52;0.38;;;24.40;50.70;;;;;;7737504;23;20016;-48
2023/06/28 04:32:21;;;;;;;0.40;0.30;;;24.60;51.10;;;;;;7737668;22;20012;-46
2023/06/28 04:35:23;;;;;;;0.40;0.40;;;24.50;50.80;;;;;;7735992;23;20064;-46
2023/06/28 04:38:24;;;;;;;1.75;0.73;;;24.50;51.00;;;;;;7735484;22;20456;-47
2023/06/28 04:41:27;;;;;;;0.68;0.40;;;24.20;50.90;;;;;;7736843;22;20457;-48
2023/06/28 04:44:36;;;;;;;0.73;0.52;;;24.60;51.00;;;;;;7737540;23;20012;-49
2023/06/28 04:47:41;;;;;;;0.45;0.40;;;24.50;51.00;;;;;;7737432;23;20016;-49
2023/06/28 04:50:47;;;;;;;0.60;0.40;;;24.90;51.30;;;;;;7737739;23;20189;-50
2023/06/28 04:53:50;;;;;;;0.70;0.43;;;24.50;51.20;;;;;;7734707;23;20039;-46
2023/06/28 04:56:52;;;;;;;1.05;0.50;;;24.50;51.30;;;;;;7737549;22;20170;-46
2023/06/28 04:59:55;;;;;;;2.25;0.82;;;24.60;51.30;;;;;;7739259;23;20019;-50
2023/06/28 05:03:00;;;;;;;1.55;0.73;;;24.40;51.50;;;;;;7738600;23;20017;-49
2023/06/28 05:06:06;;;;;;;0.82;0.55;;;24.40;51.50;;;;;;7738154;23;20012;-48
2023/06/28 05:09:07;;;;;;;2.05;0.50;;;24.50;51.80;;;;;;7738799;23;20267;-46
2023/06/28 05:12:10;;;;;;;1.60;0.60;;;24.50;51.70;;;;;;7734560;23;20349;-46
2023/06/28 05:15:12;;;;;;;0.70;0.70;;;24.40;51.80;;;;;;7739286;22;20713;-45
2023/06/28 05:18:18;;;;;;;2.55;0.60;;;24.50;52.00;;;;;;7738789;23;20017;-50
2023/06/28 05:21:19;;;;;;;1.33;0.65;;;24.30;51.90;;;;;;7710893;23;20023;-48
2023/06/28 05:24:22;;;;;;;0.93;0.50;;;24.40;52.00;;;;;;7737182;23;20012;-51
2023/06/28 05:27:27;;;;;;;1.40;0.43;;;23.90;51.90;;;;;;7735573;22;20352;-45
2023/06/28 05:30:29;;;;;;;1.17;0.88;;;24.30;52.20;;;;;;7734825;23;20020;-47
2023/06/28 05:33:31;;;;;;;1.25;0.60;;;24.30;52.40;;;;;;7737796;22;20016;-50
2023/06/28 05:36:32;;;;;;;2.78;0.70;;;24.20;52.20;;;;;;7738947;22;20341;-46
2023/06/28 05:39:34;;;;;;;0.90;0.60;;;24.30;52.50;;;;;;7738124;22;20039;-48
2023/06/28 05:42:37;;;;;;;1.40;0.60;;;24.30;52.60;;;;;;7738085;23;20091;-47
2023/06/28 05:45:42;;;;;;;1.08;0.52;;;24.20;52.60;;;;;;7735612;23;20058;-60
2023/06/28 05:48:46;;;;;;;0.90;0.60;;;24.30;52.60;;;;;;7730907;22;20452;-60
2023/06/28 05:51:48;;;;;;;1.00;0.60;;;24.10;52.60;;;;;;7732688;23;20023;-60
2023/06/28 05:54:49;;;;;;;1.27;0.68;;;24.30;53.00;;;;;;7734706;23;20352;-60
2023/06/28 05:57:54;;;;;;;2.15;0.70;;;24.30;53.00;;;;;;7727417;22;20020;-60
2023/06/28 06:00:56;;;;;;;1.20;0.80;;;24.30;52.70;;;;;;7734966;23;20012;-60
2023/06/28 06:03:57;;;;;;;1.73;0.93;;;24.20;53.00;;;;;;7717071;23;20027;-60
2023/06/28 06:06:59;;;;;;;0.70;0.68;;;24.10;53.10;;;;;;7709644;23;20040;-60
2023/06/28 06:10:02;;;;;;;2.85;0.90;;;24.30;53.40;;;;;;7669136;23;20301;-58
2023/06/28 06:13:06;;;;;;;0.80;0.70;;;24.30;53.20;;;;;;7674470;23;20020;-58
2023/06/28 06:16:08;;;;;;;1.63;0.95;;;24.20;53.40;;;;;;7709245;23;20053;-58
2023/06/28 06:19:10;;;;;;;1.52;1.10;;;24.30;53.20;;;;;;7725918;23;20016;-59
2023/06/28 06:22:14;;;;;;;1.70;0.80;;;24.10;53.40;;;;;;7717878;22;20452;-60
2023/06/28 06:25:16;;;;;;;1.63;1.00;;;24.40;53.60;;;;;;7708255;23;20085;-59
2023/06/28 06:28:19;;;;;;;1.98;1.10;;;24.30;53.60;;;;;;7692250;22;20747;-58
2023/06/28 06:31:22;;;;;;;1.48;1.00;;;24.30;53.60;;;;;;7656003;23;20008;-58
2023/06/28 06:34:26;;;;;;;1.50;1.10;;;24.40;54.40;;;;;;7671036;23;20016;-58
2023/06/28 06:37:28;;;;;;;1.48;1.05;;;23.90;53.40;;;;;;7721554;23;20024;-59
2023/06/28 06:40:33;;;;;;;1.75;1.00;;;24.20;53.80;;;;;;7683846;23;20019;-60
2023/06/28 06:43:38;;;;;;;2.50;1.25;;;24.30;53.80;;;;;;7697023;23;20101;-59
2023/06/28 06:46:43;;;;;;;1.30;0.90;;;24.40;54.00;;;;;;7720783;23;20039;-60
2023/06/28 06:49:44;;;;;;;3.13;1.23;;;23.20;53.80;;;;;;7674616;23;20691;-60
2023/06/28 06:52:46;;;;;;;2.72;1.05;;;24.30;54.60;;;;;;7662086;22;20022;-59
2023/06/28 06:55:48;;;;;;;3.45;1.30;;;23.70;53.70;;;;;;7645266;23;20073;-58
2023/06/28 06:58:50;;;;;;;3.33;1.50;;;24.40;54.80;;;;;;7654317;22;20730;-58
2023/06/28 07:01:51;;;;;;;4.35;1.83;;;24.00;55.10;;;;;;7668295;23;20073;-59
2023/06/28 07:04:53;;;;;;;1.90;1.20;;;24.30;55.30;;;;;;7676256;23;20148;-58
2023/06/28 07:07:55;;;;;;;1.75;1.25;;;24.40;55.10;;;;;;7705227;23;20008;-58
2023/06/28 07:10:57;;;;;;;3.20;1.30;;;24.40;55.50;;;;;;7701711;23;20012;-58
2023/06/28 07:13:59;;;;;;;3.30;1.02;;;22.60;53.90;;;;;;7702326;23;20028;-61
2023/06/28 07:17:00;;;;;;;2.65;1.20;;;24.30;55.20;;;;;;7683939;23;20016;-59
2023/06/28 07:20:02;;;;;;;1.67;0.98;;;24.40;55.40;;;;;;7698895;23;20577;-60
2023/06/28 07:23:05;;;;;;;1.40;0.85;;;24.50;55.50;;;;;;7697037;23;20016;-60
2023/06/28 07:26:08;;;;;;;1.33;1.00;;;23.30;54.70;;;;;;7701033;23;20075;-59
2023/06/28 07:29:10;;;;;;;2.58;1.13;;;24.40;55.80;;;;;;7703651;22;20012;-59
2023/06/28 07:32:11;;;;;;;1.38;0.85;;;24.50;55.40;;;;;;7677377;23;20075;-60
2023/06/28 07:35:13;;;;;;;1.83;1.08;;;24.50;55.70;;;;;;7706646;22;20068;-55
2023/06/28 07:38:18;;;;;;;1.90;1.00;;;24.60;56.00;;;;;;7700949;23;20016;-58
2023/06/28 07:41:19;;;;;;;3.10;1.10;;;24.50;56.30;;;;;;7697980;23;20065;-58
2023/06/28 07:44:22;;;;;;;4.93;1.77;;;24.10;57.30;;;;;;7703639;23;20073;-58
2023/06/28 07:47:23;;;;;;;4.18;1.70;;;24.70;57.20;;;;;;7703595;23;20016;-57
2023/06/28 07:50:25;;;;;;;6.03;2.00;;;24.20;57.40;;;;;;7702450;22;20020;-58
2023/06/28 07:53:26;;;;;;;7.07;2.97;;;24.50;58.10;;;;;;7704652;22;20027;-58
2023/06/28 07:56:28;;;;;;;4.97;2.58;;;24.90;59.00;;;;;;7674648;22;20560;-58
2023/06/28 07:59:33;;;;;;;3.88;1.77;;;24.50;59.30;;;;;;7624157;22;20087;-57
2023/06/28 08:02:34;;;;;;;4.25;2.50;;;24.60;59.20;;;;;;7692235;22;20095;-58
2023/06/28 08:05:36;;;;;;;6.93;1.98;;;24.70;59.40;;;;;;7696407;22;20080;-60
2023/06/28 08:08:41;;;;;;;4.25;2.30;;;24.70;60.10;;;;;;7678716;22;20019;-59
2023/06/28 08:11:43;;;;;;;4.88;2.53;;;24.70;59.80;;;;;;7697484;23;20080;-59
2023/06/28 08:14:45;;;;;;;4.45;1.80;;;24.70;59.90;;;;;;7693600;23;20020;-59
2023/06/28 08:17:49;;;;;;;6.22;2.22;;;24.70;59.00;;;;;;7652268;23;20016;-59
2023/06/28 08:20:51;;;;;;;4.97;1.95;;;24.70;59.90;;;;;;7641262;23;20016;-57
2023/06/28 08:23:52;;;;;;;4.85;2.20;;;24.50;60.00;;;;;;7619908;23;20888;-59
2023/06/28 08:26:54;;;;;;;4.78;2.03;;;24.50;59.80;;;;;;7647324;23;20738;-59
2023/06/28 08:29:57;;;;;;;5.97;1.92;;;24.70;60.10;;;;;;7663962;23;20093;-58
2023/06/28 08:32:58;;;;;;;6.78;2.20;;;26.00;60.50;;;;;;7666773;23;20012;-58
2023/06/28 08:36:00;;;;;;;4.07;2.10;;;24.50;59.70;;;;;;7670018;23;20015;-59
2023/06/28 08:39:02;;;;;;;4.82;1.25;;;24.70;59.70;;;;;;7614175;23;20015;-59
2023/06/28 08:42:04;;;;;;;3.47;1.13;;;24.00;59.50;;;;;;7642814;23;20020;-62
2023/06/28 08:45:09;;;;;;;2.20;1.25;;;24.90;59.50;;;;;;7660702;22;20016;-61
2023/06/28 08:48:13;;;;;;;12.60;1.60;;;24.70;59.30;;;;;;7663559;23;20088;-59
2023/06/28 08:51:21;;;;;;;8.53;1.50;;;24.90;59.80;;;;;;7661693;23;20141;-60
2023/06/28 08:54:28;;;;;;;7.55;1.27;;;24.80;59.20;;;;;;7698400;22;20270;-61
2023/06/28 08:57:30;;;;;;;13.95;1.67;;;24.60;58.60;;;;;;7680616;22;20016;-62
2023/06/28 09:00:32;;;;;;;10.45;1.63;;;25.00;59.00;;;;;;7696848;22;20016;-61
2023/06/28 09:03:39;;;;;;;10.70;2.28;;;25.00;58.50;;;;;;7698768;22;20020;-64
2023/06/28 09:06:41;;;;;;;6.05;1.65;;;24.80;58.30;;;;;;7705492;23;20091;-62
2023/06/28 09:09:44;;;;;;;14.35;1.90;;;25.10;58.10;;;;;;7704868;23;20012;-61
2023/06/28 09:12:48;;;;;;;18.42;2.28;;;25.00;58.60;;;;;;7698859;23;20016;-59
2023/06/28 09:15:50;;;;;;;13.57;1.45;;;25.10;58.60;;;;;;7685130;23;20008;-60
2023/06/28 09:18:52;;;;;;;16.48;1.98;;;24.70;58.50;;;;;;7665983;22;20781;-60
2023/06/28 09:22:02;;;;;;;5.93;1.45;;;25.00;58.50;;;;;;7657421;23;20028;-60
2023/06/28 09:25:05;;;;;;;13.60;2.22;;;25.30;59.10;;;;;;7680868;23;20027;-60
2023/06/28 09:28:08;;;;;;;10.60;1.40;;;24.90;58.00;;;;;;7695491;23;20665;-59
2023/06/28 09:31:20;;;;;;;9.05;1.42;;;25.10;58.40;;;;;;7691999;22;20020;-60
2023/06/28 09:34:23;;;;;;;11.73;1.98;;;25.20;58.60;;;;;;7690853;23;20101;-59
2023/06/28 09:37:24;;;;;;;16.15;2.63;;;24.50;58.40;;;;;;7691011;23;20017;-60
2023/06/28 09:40:33;;;;;;;14.38;2.40;;;25.10;58.00;;;;;;7681444;22;20031;-60
2023/06/28 09:43:36;;;;;;;9.18;1.80;;;25.00;58.30;;;;;;7671965;23;20040;-61
2023/06/28 09:46:44;;;;;;;8.70;1.98;;;25.30;58.00;;;;;;7692579;23;20012;-60
2023/06/28 09:49:56;;;;;;;5.63;1.35;;;25.00;57.80;;;;;;7698474;23;20639;-60
2023/06/28 09:52:58;;;;;;;8.27;1.90;;;25.30;57.90;;;;;;7694612;23;20026;-61
2023/06/28 09:55:59;;;;;;;8.15;2.13;;;25.20;57.90;;;;;;7687500;23;20073;-59
2023/06/28 09:59:04;;;;;;;6.18;1.85;;;25.40;57.60;;;;;;7686913;22;20036;-58
2023/06/28 10:02:08;;;;;;;2.83;1.65;;;25.20;57.50;;;;;;7661102;23;20385;-58
2023/06/28 10:05:11;;;;;;;4.32;1.50;;;25.00;57.30;;;;;;7678730;23;20023;-59
2023/06/28 10:08:15;;;;;;;7.97;1.70;;;25.40;57.40;;;;;;7655256;22;20012;-58
2023/06/28 10:11:16;;;;;;;4.07;1.30;;;25.50;57.10;;;;;;7655886;23;20012;-59
2023/06/28 10:14:19;;;;;;;6.60;1.55;;;25.50;57.20;;;;;;7676128;22;20013;-61
2023/06/28 10:17:28;;;;;;;4.50;1.42;;;25.50;57.20;;;;;;7677368;23;20061;-54
2023/06/28 10:20:30;;;;;;;3.10;1.38;;;25.50;57.20;;;;;;7677824;23;20100;-60
2023/06/28 10:23:35;;;;;;;4.13;1.52;;;25.60;57.10;;;;;;7682219;23;20016;-60
2023/06/28 10:26:37;;;;;;;1.67;1.02;;;25.50;56.70;;;;;;7671072;23;20008;-60
2023/06/28 10:29:41;;;;;;;2.58;1.05;;;25.60;56.90;;;;;;7679801;23;20095;-62
2023/06/28 10:32:45;;;;;;;4.40;1.40;;;25.60;57.30;;;;;;7686715;23;20016;-61
2023/06/28 10:35:47;;;;;;;4.50;2.15;;;25.60;56.60;;;;;;7691142;22;20136;-61
2023/06/28 10:38:51;;;;;;;5.30;1.92;;;25.10;55.60;;;;;;7691234;23;20722;-62
2023/06/28 10:41:55;;;;;;;4.53;1.92;;;25.40;56.00;;;;;;7695454;23;20016;-62
2023/06/28 10:44:57;;;;;;;2.45;1.40;;;25.60;56.70;;;;;;7694638;22;20012;-61
2023/06/28 10:48:01;;;;;;;2.10;1.40;;;25.60;56.20;;;;;;7695219;22;20542;-61
2023/06/28 10:51:05;;;;;;;3.88;1.98;;;24.00;54.80;;;;;;7690904;23;20577;-61
2023/06/28 10:54:13;;;;;;;4.82;2.80;;;25.70;56.10;;;;;;7695385;23;20073;-60
2023/06/28 10:57:15;;;;;;;2.97;2.40;;;25.60;55.00;;;;;;7694109;22;20024;-61
2023/06/28 11:00:41;;;;;;;3.85;2.35;;;25.60;54.70;;;;;;7681306;22;20609;-60
2023/06/28 11:03:45;;;;;;;4.00;2.40;;;25.50;54.80;;;;;;7691395;23;20039;-60
2023/06/28 11:06:47;;;;;;;5.25;3.03;;;25.50;54.20;;;;;;7651915;23;20013;-60
2023/06/28 11:10:08;;;;;;;6.35;2.75;;;25.50;53.90;;;;;;7682431;22;20020;-61
2023/06/28 11:13:13;;;;;;;3.00;2.03;;;25.50;53.90;;;;;;7690227;22;20723;-61
2023/06/28 11:16:19;;;;;;;3.92;2.42;;;25.60;53.50;;;;;;7717844;22;20020;-61
2023/06/28 11:19:22;;;;;;;9.30;2.83;;;25.60;53.40;;;;;;7713553;23;20578;-60
2023/06/28 11:22:48;;;;;;;3.97;1.92;;;25.50;53.40;;;;;;7710133;23;20047;-61
2023/06/28 11:25:57;;;;;;;4.50;2.47;;;25.10;53.20;;;;;;7709575;23;20013;-60
2023/06/28 11:28:58;;;;;;;4.70;2.63;;;25.60;53.50;;;;;;7671709;23;20012;-61
2023/06/28 11:32:01;;;;;;;4.63;2.30;;;25.60;53.50;;;;;;7675467;23;20501;-60
2023/06/28 11:35:04;;;;;;;3.83;2.28;;;25.50;53.30;;;;;;7684907;23;20016;-59
2023/06/28 11:38:07;;;;;;;4.82;2.65;;;25.20;53.30;;;;;;7704652;23;20013;-52
2023/06/28 11:41:08;;;;;;;5.22;3.20;;;25.60;53.30;;;;;;7709726;23;20016;-57
2023/06/28 11:44:11;;;;;;;5.28;3.45;;;25.60;53.30;;;;;;7709446;23;20081;-56
2023/06/28 11:47:13;;;;;;;5.97;4.18;;;25.60;53.30;;;;;;7708824;23;20550;-60
2023/06/28 11:50:17;;;;;;;8.85;5.30;;;25.60;53.30;;;;;;7708835;22;20016;-60
2023/06/28 11:53:19;;;;;;;9.18;5.85;;;25.40;53.00;;;;;;7695949;22;20021;-60
2023/06/28 11:56:35;;;;;;;10.80;5.90;;;25.00;52.60;;;;;;7698988;22;20012;-59
2023/06/28 11:59:39;;;;;;;7.63;5.10;;;25.60;53.30;;;;;;7689214;23;20018;-60
2023/06/28 12:02:47;;;;;;;9.02;4.88;;;25.40;53.20;;;;;;7687171;23;20019;-59
2023/06/28 12:05:53;;;;;;;7.65;5.32;;;25.50;53.40;;;;;;7660288;23;20091;-60
2023/06/28 12:08:55;;;;;;;8.75;4.30;;;24.70;53.10;;;;;;7697458;23;20040;-59
2023/06/28 12:11:58;;;;;;;8.15;5.43;;;25.70;53.80;;;;;;7689579;23;20016;-60
2023/06/28 12:15:00;;;;;;;7.10;5.82;;;25.60;53.60;;;;;;7697507;23;20627;-59
2023/06/28 12:18:01;;;;;;;8.95;6.07;;;25.10;53.30;;;;;;7688834;23;20157;-59
2023/06/28 12:21:21;;;;;;;7.15;5.43;;;25.40;53.30;;;;;;7704983;22;20024;-59
2023/06/28 12:24:24;;;;;;;8.55;6.40;;;25.60;53.50;;;;;;7702813;23;20076;-60
2023/06/28 12:27:26;;;;;;;7.20;5.82;;;25.50;53.30;;;;;;7703591;23;20023;-60
2023/06/28 12:30:28;;;;;;;13.15;5.60;;;25.50;53.80;;;;;;7701045;22;20016;-58
2023/06/28 12:33:34;;;;;;;11.15;6.32;;;25.30;53.60;;;;;;7700690;23;20023;-59
2023/06/28 12:36:39;;;;;;;7.05;5.18;;;25.70;53.90;;;;;;7696523;23;20327;-59
2023/06/28 12:39:43;;;;;;;9.15;6.25;;;25.60;53.70;;;;;;7675159;23;20714;-60
2023/06/28 12:42:47;;;;;;;14.05;8.07;;;25.60;53.70;;;;;;7692867;22;20099;-59
2023/06/28 12:45:51;;;;;;;14.10;9.05;;;26.60;53.90;;;;;;7705340;23;20043;-56
2023/06/28 12:48:55;;;;;;;12.05;9.30;;;25.70;53.20;;;;;;7703021;22;20019;-59
2023/06/28 12:51:57;;;;;;;11.27;8.20;;;25.50;53.00;;;;;;7701271;22;20232;-58
2023/06/28 12:55:02;;;;;;;10.85;7.78;;;25.60;53.10;;;;;;7698223;22;20452;-60
2023/06/28 12:58:04;;;;;;;10.07;6.90;;;25.70;53.10;;;;;;7704662;22;20745;-59
2023/06/28 13:01:08;;;;;;;8.90;7.07;;;25.60;53.20;;;;;;7668518;22;20016;-59
2023/06/28 13:04:11;;;;;;;12.45;7.88;;;25.00;52.60;;;;;;7666965;23;20020;-59
2023/06/28 13:07:13;;;;;;;12.45;7.53;;;25.60;53.50;;;;;;7693338;23;20522;-58
2023/06/28 13:10:14;;;;;;;10.70;7.25;;;25.70;53.10;;;;;;7711090;23;20054;-57
2023/06/28 13:13:16;;;;;;;10.60;7.30;;;25.70;53.30;;;;;;7702444;23;20016;-58
2023/06/28 13:16:17;;;;;;;9.70;7.28;;;25.70;53.30;;;;;;7649200;22;20008;-58
2023/06/28 13:19:20;;;;;;;11.23;7.95;;;25.50;53.40;;;;;;7674276;23;20763;-58
2023/06/28 13:22:22;;;;;;;13.77;9.00;;;25.50;53.10;;;;;;7668563;22;20019;-58
2023/06/28 13:25:26;;;;;;;11.35;8.18;;;25.20;53.10;;;;;;7692495;23;20635;-57
2023/06/28 13:28:27;;;;;;;11.90;8.32;;;25.60;52.80;;;;;;7671756;23;20059;-58
2023/06/28 13:31:29;;;;;;;12.77;9.00;;;25.60;53.00;;;;;;7662173;23;20012;-58
2023/06/28 13:34:31;;;;;;;15.95;9.68;;;25.70;53.10;;;;;;7646381;23;20050;-58
2023/06/28 13:37:33;;;;;;;10.88;8.20;;;25.60;53.30;;;;;;7685290;23;20022;-59
2023/06/28 13:40:35;;;;;;;12.23;9.27;;;25.60;52.50;;;;;;7668915;23;20016;-59
2023/06/28 13:43:36;;;;;;;10.20;7.70;;;25.40;52.60;;;;;;7693269;23;20012;-59
2023/06/28 13:46:38;;;;;;;11.45;8.30;;;25.60;52.90;;;;;;7667951;22;20013;-59
2023/06/28 13:49:39;;;;;;;11.52;8.52;;;25.30;52.90;;;;;;7629283;22;20022;-58
2023/06/28 13:52:41;;;;;;;12.50;9.50;;;25.50;52.90;;;;;;7640959;23;20019;-58
2023/06/28 13:55:43;;;;;;;12.82;8.50;;;25.60;53.10;;;;;;7680615;23;20051;-57
2023/06/28 13:58:48;;;;;;;9.75;7.53;;;25.60;52.70;;;;;;7709419;22;20020;-59
2023/06/28 14:01:50;;;;;;;11.30;8.23;;;25.50;53.00;;;;;;7707314;23;20064;-59
2023/06/28 14:04:54;;;;;;;10.13;7.80;;;25.50;53.30;;;;;;7704126;23;20068;-57
2023/06/28 14:07:56;;;;;;;11.77;8.38;;;25.20;53.50;;;;;;7708637;22;20055;-58
2023/06/28 14:11:00;;;;;;;11.20;8.50;;;25.40;53.40;;;;;;7704283;23;20035;-58
2023/06/28 14:14:02;;;;;;;12.73;8.95;;;25.50;54.30;;;;;;7691091;22;20026;-58
2023/06/28 14:17:04;;;;;;;11.65;8.68;;;25.50;54.20;;;;;;7695792;23;20016;-58
2023/06/28 14:20:07;;;;;;;11.85;8.77;;;25.50;54.00;;;;;;7688419;22;20083;-58
2023/06/28 14:23:09;;;;;;;12.48;8.45;;;25.50;53.90;;;;;;7712442;23;20024;-57
2023/06/28 14:26:11;;;;;;;11.75;8.40;;;25.50;54.00;;;;;;7713289;22;20123;-58
2023/06/28 14:29:13;;;;;;;10.70;7.63;;;25.30;53.60;;;;;;7711623;23;20012;-58
2023/06/28 14:32:14;;;;;;;11.48;8.00;;;25.40;54.10;;;;;;7710749;23;20023;-57
2023/06/28 14:35:16;;;;;;;9.90;7.47;;;25.50;54.50;;;;;;7697867;22;20468;-56
2023/06/28 14:38:21;;;;;;;8.40;7.05;;;25.60;54.20;;;;;;7700536;22;20017;-56
2023/06/28 14:41:28;;;;;;;9.90;7.00;;;25.50;54.10;;;;;;7709081;22;20070;-57
2023/06/28 14:44:30;;;;;;;9.30;6.93;;;25.20;52.70;;;;;;7716596;23;20147;-58
2023/06/28 14:47:31;;;;;;;8.77;7.00;;;25.40;54.00;;;;;;7702824;23;20012;-58
2023/06/28 14:50:33;;;;;;;8.65;6.22;;;25.40;54.40;;;;;;7697818;22;20013;-59
2023/06/28 14:53:37;;;;;;;9.45;7.15;;;25.40;54.50;;;;;;7704327;23;20012;-59
2023/06/28 14:56:40;;;;;;;9.63;6.35;;;25.50;54.80;;;;;;7701477;22;20271;-56
2023/06/28 14:59:44;;;;;;;8.93;6.53;;;26.10;54.90;;;;;;7671026;23;20084;-61
2023/06/28 15:02:48;;;;;;;10.13;6.10;;;25.30;56.30;;;;;;7648734;23;20069;-60
2023/06/28 15:05:50;;;;;;;10.00;6.55;;;25.40;55.40;;;;;;7683812;23;20024;-57
2023/06/28 15:08:52;;;;;;;8.70;6.57;;;25.50;55.30;;;;;;7688618;23;20622;-58
2023/06/28 15:11:54;;;;;;;7.70;5.63;;;25.50;55.50;;;;;;7696620;22;20012;-59
2023/06/28 15:14:55;;;;;;;7.72;5.25;;;25.50;55.40;;;;;;7696572;22;20341;-58
2023/06/28 15:17:57;;;;;;;6.38;4.47;;;25.10;55.10;;;;;;7693828;22;20040;-58
2023/06/28 15:20:58;;;;;;;6.55;4.68;;;25.50;55.30;;;;;;7697296;23;20020;-57
2023/06/28 15:24:01;;;;;;;8.60;5.00;;;25.30;55.10;;;;;;7690174;23;20016;-59
2023/06/28 15:27:05;;;;;;;5.38;4.28;;;25.50;55.30;;;;;;7653160;23;20012;-58
2023/06/28 15:30:07;;;;;;;5.78;4.57;;;25.40;55.40;;;;;;7623823;22;20012;-59
2023/06/28 15:33:14;;;;;;;4.57;3.97;;;25.50;55.40;;;;;;7664965;23;20068;-57
2023/06/28 15:36:18;;;;;;;5.32;4.13;;;25.50;54.80;;;;;;7699485;22;20020;-60
2023/06/28 15:39:22;;;;;;;5.32;3.95;;;25.10;54.80;;;;;;7685599;23;20016;-60
2023/06/28 15:42:23;;;;;;;5.03;3.95;;;25.50;55.00;;;;;;7682735;22;20012;-60
2023/06/28 15:45:25;;;;;;;5.28;4.28;;;25.40;55.20;;;;;;7650530;22;20597;-60
2023/06/28 15:48:26;;;;;;;5.60;4.20;;;25.40;55.00;;;;;;7679348;23;20590;-60
2023/06/28 15:51:28;;;;;;;5.35;3.88;;;25.50;55.10;;;;;;7638369;22;20069;-60